Terminal Aerodrome Forecast
Issued by NWS

Home | Current Version | Previous Version | Text Only | Print | Product List | Glossary On
Versions: 1 2 3 4 5 6 7 8 9 10 11 12 13
805
FTPA31 PHFO 210520
TAFHKO
TAF
PHKO 210520Z 2106/2206 07008KT P6SM SCT030 BKN045
     FM212000 20011KT P6SM FEW035 BKN060
     FM220400 VRB06G14KT P6SM FEW030 BKN050=

USA.gov is the U.S. government's official web portal to all federal, state and local government web resources and services.